createdAt,value
2023-06-12T00:01:44.362Z,327.05
2023-06-12T00:04:12.824Z,377.20
2023-06-12T00:06:44.187Z,374.17
2023-06-12T00:09:13.271Z,316.20
2023-06-12T00:11:42.905Z,283.95
2023-06-12T00:14:12.229Z,300.13
2023-06-12T00:16:40.698Z,319.23
2023-06-12T00:19:08.725Z,319.17
2023-06-12T00:21:38.238Z,318.15
2023-06-12T00:24:10.096Z,294.75
2023-06-12T00:26:38.497Z,289.50
2023-06-12T00:29:06.527Z,254.48
2023-06-12T00:31:36.184Z,238.00
2023-06-12T00:34:04.167Z,245.07
2023-06-12T00:36:32.696Z,264.35
2023-06-12T00:39:00.709Z,267.02
2023-06-12T00:41:28.880Z,265.80
2023-06-12T00:43:56.879Z,295.95
2023-06-12T00:46:25.454Z,294.23
2023-06-12T00:48:55.138Z,316.02
2023-06-12T00:51:28.933Z,338.85
2023-06-12T00:53:58.107Z,330.98
2023-06-12T00:56:28.439Z,317.17
2023-06-12T00:58:57.266Z,329.27
2023-06-12T01:01:26.842Z,345.27
2023-06-12T01:03:59.269Z,333.10
2023-06-12T01:06:35.805Z,294.38
2023-06-12T01:09:09.869Z,304.73
2023-06-12T01:11:39.567Z,319.40
2023-06-12T01:14:07.909Z,318.20
2023-06-12T01:16:36.198Z,344.15
2023-06-12T01:19:06.993Z,320.40
2023-06-12T01:21:37.028Z,348.08
2023-06-12T01:24:24.145Z,315.48
2023-06-12T01:27:12.448Z,317.70
2023-06-12T01:30:03.877Z,332.65
2023-06-12T01:32:39.116Z,319.58
2023-06-12T01:35:12.927Z,320.38
2023-06-12T01:37:47.378Z,326.90
2023-06-12T01:40:18.669Z,321.48
2023-06-12T01:42:47.217Z,332.05
2023-06-12T01:45:15.899Z,317.67
2023-06-12T01:47:45.427Z,346.15
2023-06-12T01:50:14.779Z,248.30
2023-06-12T01:52:43.269Z,247.73
2023-06-12T01:55:12.135Z,258.20
2023-06-12T01:57:40.202Z,271.15
2023-06-12T02:00:10.660Z,296.80
2023-06-12T02:02:40.993Z,314.05
2023-06-12T02:05:11.132Z,320.60
2023-06-12T02:07:39.593Z,355.50
2023-06-12T02:10:08.848Z,354.50
2023-06-12T02:12:36.878Z,272.50
2023-06-12T02:15:05.991Z,265.45
2023-06-12T02:17:35.085Z,260.40
2023-06-12T02:20:04.599Z,242.93
2023-06-12T02:22:34.096Z,235.00
2023-06-12T02:25:03.262Z,241.52
2023-06-12T02:27:31.531Z,251.27
2023-06-12T02:29:59.702Z,230.40
2023-06-12T02:32:28.891Z,238.88
2023-06-12T02:34:57.179Z,263.98
2023-06-12T02:37:25.473Z,288.88
2023-06-12T02:39:54.905Z,275.23
2023-06-12T02:42:23.094Z,261.40
2023-06-12T02:44:51.050Z,268.75
2023-06-12T02:47:19.877Z,262.90
2023-06-12T02:49:48.416Z,263.35
2023-06-12T02:52:16.760Z,256.63
2023-06-12T02:54:44.796Z,272.83
2023-06-12T02:57:15.509Z,275.15
2023-06-12T02:59:43.515Z,294.65
2023-06-12T03:02:11.660Z,275.48
2023-06-12T03:04:39.864Z,246.82
2023-06-12T03:07:08.005Z,258.45
2023-06-12T03:09:38.405Z,253.68
2023-06-12T03:12:06.947Z,277.55
2023-06-12T03:14:37.759Z,261.88
2023-06-12T03:17:06.095Z,242.20
2023-06-12T03:19:34.553Z,237.98
2023-06-12T03:22:02.997Z,233.38
2023-06-12T03:24:31.453Z,231.60
2023-06-12T03:27:00.463Z,244.07
2023-06-12T03:29:28.690Z,243.80
2023-06-12T03:31:58.307Z,256.92
2023-06-12T03:34:26.693Z,245.40
2023-06-12T03:36:55.031Z,258.70
2023-06-12T03:39:23.019Z,264.02
2023-06-12T03:41:57.461Z,272.38
2023-06-12T03:44:26.305Z,286.70
2023-06-12T03:46:54.586Z,337.70
2023-06-12T03:49:24.545Z,309.55
2023-06-12T03:51:52.647Z,268.30
2023-06-12T03:54:21.558Z,293.25
2023-06-12T03:56:50.588Z,286.67
2023-06-12T03:59:20.040Z,282.02
2023-06-12T04:01:49.877Z,286.15
2023-06-12T04:04:18.346Z,250.75
2023-06-12T04:06:48.030Z,301.02
2023-06-12T04:09:17.018Z,335.17
2023-06-12T04:11:45.694Z,312.95
2023-06-12T04:14:13.814Z,333.40
2023-06-12T04:16:41.809Z,342.83
2023-06-12T04:19:10.507Z,288.65
2023-06-12T04:21:39.197Z,311.10
2023-06-12T04:24:14.556Z,313.80
2023-06-12T04:26:43.023Z,315.20
2023-06-12T04:29:11.182Z,308.77
2023-06-12T04:31:39.601Z,292.05
2023-06-12T04:34:08.638Z,315.70
2023-06-12T04:36:39.074Z,288.65
2023-06-12T04:39:12.880Z,286.95
2023-06-12T04:41:42.644Z,266.77
2023-06-12T04:44:10.650Z,247.27
2023-06-12T04:46:38.717Z,247.38
2023-06-12T04:49:07.081Z,268.20
2023-06-12T04:51:35.157Z,276.50
2023-06-12T04:54:06.066Z,292.00
2023-06-12T04:56:35.814Z,300.33
2023-06-12T04:59:03.934Z,308.42
2023-06-12T05:01:34.548Z,337.83
2023-06-12T05:04:04.092Z,325.50
2023-06-12T05:06:34.196Z,333.88
2023-06-12T05:09:07.023Z,299.80
2023-06-12T05:11:36.580Z,321.48
2023-06-12T05:14:04.838Z,295.73
2023-06-12T05:16:33.678Z,273.17
2023-06-12T05:19:01.960Z,266.13
2023-06-12T05:21:30.015Z,317.08
2023-06-12T05:23:58.415Z,294.75
2023-06-12T05:26:26.590Z,304.73
2023-06-12T05:28:56.052Z,287.45
2023-06-12T05:31:24.544Z,314.33
2023-06-12T05:33:52.796Z,310.38
2023-06-12T05:36:21.093Z,302.67
2023-06-12T05:38:49.754Z,291.65
2023-06-12T05:41:19.100Z,311.52
2023-06-12T05:43:48.404Z,275.00
2023-06-12T05:46:26.106Z,290.30
2023-06-12T05:48:56.428Z,287.30
2023-06-12T05:51:24.490Z,269.85
2023-06-12T05:53:52.897Z,292.80
2023-06-12T05:56:21.931Z,301.42
2023-06-12T05:58:50.158Z,280.83
2023-06-12T06:01:23.342Z,286.27
2023-06-12T06:03:52.399Z,330.17
2023-06-12T06:06:20.706Z,335.38
2023-06-12T06:08:48.759Z,311.15
2023-06-12T06:11:16.839Z,305.08
2023-06-12T06:13:45.798Z,338.42
2023-06-12T06:16:14.212Z,262.48
2023-06-12T06:18:43.945Z,331.75
2023-06-12T06:21:12.765Z,336.75
2023-06-12T06:23:42.107Z,308.42
2023-06-12T06:26:11.000Z,335.95
2023-06-12T06:28:39.153Z,316.05
2023-06-12T06:31:09.004Z,342.08
2023-06-12T06:33:37.786Z,333.15
2023-06-12T06:36:08.103Z,350.13
2023-06-12T06:38:36.083Z,346.50
2023-06-12T06:41:04.533Z,297.38
2023-06-12T06:43:32.576Z,285.98
2023-06-12T06:46:00.984Z,294.60
2023-06-12T06:48:29.065Z,302.42
2023-06-12T06:50:58.338Z,327.45
2023-06-12T06:53:27.755Z,366.38
2023-06-12T06:55:55.789Z,333.05
2023-06-12T06:58:23.770Z,309.92
2023-06-12T07:00:51.761Z,317.20
2023-06-12T07:03:20.258Z,367.33
2023-06-12T07:05:48.527Z,374.58
2023-06-12T07:08:16.714Z,377.38
2023-06-12T07:10:46.161Z,272.88
2023-06-12T07:13:14.781Z,369.40
2023-06-12T07:15:43.159Z,333.52
2023-06-12T07:18:12.560Z,340.45
2023-06-12T07:20:41.229Z,320.13
2023-06-12T07:23:09.357Z,331.00
2023-06-12T07:25:37.376Z,301.15
2023-06-12T07:28:06.988Z,319.33
2023-06-12T07:30:35.603Z,345.67
2023-06-12T07:33:04.097Z,359.05
2023-06-12T07:35:32.168Z,388.85
2023-06-12T07:38:00.737Z,378.77
2023-06-12T07:40:29.235Z,407.90
2023-06-12T07:42:57.421Z,349.20
2023-06-12T07:45:26.988Z,349.45
2023-06-12T07:47:56.847Z,356.15
2023-06-12T07:50:24.906Z,370.92
2023-06-12T07:52:53.134Z,333.15
2023-06-12T07:55:21.214Z,256.65
2023-06-12T07:57:50.898Z,268.75
2023-06-12T08:00:19.256Z,285.77
2023-06-12T08:02:59.488Z,260.85
2023-06-12T08:05:28.096Z,311.60
2023-06-12T08:07:56.639Z,321.60
2023-06-12T08:10:24.787Z,399.15
2023-06-12T08:12:53.774Z,366.05
2023-06-12T08:15:23.034Z,446.75
2023-06-12T08:17:52.719Z,381.52
2023-06-12T08:20:20.953Z,393.90
2023-06-12T08:22:49.626Z,284.80
2023-06-12T08:25:17.587Z,323.95
2023-06-12T08:27:46.059Z,328.27
2023-06-12T08:30:16.168Z,321.13
2023-06-12T08:32:44.594Z,331.08
2023-06-12T08:35:16.474Z,336.17
2023-06-12T08:37:45.282Z,378.05
2023-06-12T08:40:13.625Z,394.55
2023-06-12T08:42:51.175Z,383.67
2023-06-12T08:45:22.549Z,411.38
2023-06-12T08:47:51.946Z,384.33
2023-06-12T08:50:22.387Z,327.15
2023-06-12T08:52:51.869Z,389.30
2023-06-12T08:55:22.845Z,385.35
2023-06-12T08:57:50.948Z,359.65
2023-06-12T09:00:20.557Z,322.80
2023-06-12T09:02:54.019Z,322.02
2023-06-12T09:05:26.962Z,320.58
2023-06-12T09:07:55.556Z,340.77
2023-06-12T09:10:23.569Z,357.40
2023-06-12T09:12:56.656Z,388.63
2023-06-12T09:15:25.420Z,392.25
2023-06-12T09:17:54.922Z,363.15
2023-06-12T09:20:41.685Z,378.65
2023-06-12T09:23:13.169Z,442.25
2023-06-12T09:25:47.469Z,465.30
2023-06-12T09:28:32.681Z,379.85
2023-06-12T09:31:01.425Z,452.55
2023-06-12T09:33:30.247Z,467.27
2023-06-12T09:36:01.667Z,377.80
2023-06-12T09:38:33.240Z,424.85
2023-06-12T09:41:02.904Z,374.60
2023-06-12T09:43:31.227Z,378.27
2023-06-12T09:46:00.335Z,451.48
2023-06-12T09:48:33.612Z,387.05
2023-06-12T09:51:08.442Z,343.83
2023-06-12T09:53:41.550Z,266.05
2023-06-12T09:56:11.453Z,276.27
2023-06-12T09:58:40.937Z,294.20
2023-06-12T10:01:09.832Z,298.85
2023-06-12T10:03:40.829Z,309.58
2023-06-12T10:06:13.203Z,303.13
2023-06-12T10:08:42.116Z,317.00
2023-06-12T10:11:11.835Z,325.23
2023-06-12T10:13:41.327Z,315.25
2023-06-12T10:16:10.212Z,319.25
2023-06-12T10:18:38.634Z,338.65
2023-06-12T10:21:08.170Z,335.92
2023-06-12T10:23:39.189Z,327.20
2023-06-12T10:26:07.863Z,326.20
2023-06-12T10:28:37.081Z,387.70
2023-06-12T10:31:14.133Z,439.52
2023-06-12T10:33:58.860Z,380.50
2023-06-12T10:36:29.185Z,364.40
2023-06-12T10:39:06.601Z,364.33
2023-06-12T10:41:35.114Z,370.10
2023-06-12T10:44:24.898Z,343.15
2023-06-12T10:46:54.363Z,329.35
2023-06-12T10:49:22.688Z,346.55
2023-06-12T10:51:51.009Z,394.70
2023-06-12T10:54:27.107Z,389.17
2023-06-12T10:56:59.303Z,431.23
2023-06-12T10:59:36.705Z,448.35
2023-06-12T11:02:05.497Z,451.25
2023-06-12T11:04:38.772Z,475.52
2023-06-12T11:07:07.914Z,449.42
2023-06-12T11:09:42.814Z,477.48
2023-06-12T11:12:11.371Z,457.35
2023-06-12T11:14:39.521Z,468.63
2023-06-12T11:17:08.059Z,463.75
2023-06-12T11:19:36.136Z,525.40
2023-06-12T11:22:05.799Z,476.50
2023-06-12T11:24:34.109Z,511.90
2023-06-12T11:27:04.016Z,492.98
2023-06-12T11:29:52.539Z,495.55
2023-06-12T11:32:24.647Z,491.65
2023-06-12T11:34:54.189Z,463.42
2023-06-12T11:37:26.696Z,504.15
2023-06-12T11:40:02.408Z,491.75
2023-06-12T11:42:31.792Z,491.65
2023-06-12T11:44:59.766Z,489.95
2023-06-12T11:49:59.304Z,511.70
2023-06-12T11:52:27.474Z,512.10
2023-06-12T11:57:35.055Z,504.00
2023-06-12T12:00:13.373Z,484.08
2023-06-12T12:02:44.630Z,500.88
2023-06-12T12:05:15.291Z,487.52
2023-06-12T12:07:46.702Z,481.58
2023-06-12T12:10:15.906Z,425.70
2023-06-12T12:12:47.092Z,429.63
2023-06-12T12:15:17.162Z,470.48
2023-06-12T12:17:48.447Z,475.83
2023-06-12T12:20:20.301Z,478.48
2023-06-12T12:22:49.967Z,475.80
2023-06-12T12:25:21.356Z,437.73
2023-06-12T12:27:52.488Z,448.50
2023-06-12T12:30:22.316Z,471.73
2023-06-12T12:32:52.777Z,508.52
2023-06-12T12:35:21.478Z,436.17
2023-06-12T12:37:51.688Z,478.08
2023-06-12T12:40:20.296Z,441.85
2023-06-12T12:42:50.675Z,470.58
2023-06-12T12:45:20.082Z,444.42
2023-06-12T12:47:49.702Z,397.25
2023-06-12T12:50:22.554Z,417.05
2023-06-12T12:52:53.521Z,364.20
2023-06-12T12:55:21.506Z,346.65
2023-06-12T12:57:59.504Z,413.25
2023-06-12T13:00:30.735Z,420.23
2023-06-12T13:02:59.262Z,443.50
2023-06-12T13:05:27.318Z,439.98
2023-06-12T13:07:56.463Z,485.83
2023-06-12T13:10:24.571Z,528.75
2023-06-12T13:12:53.932Z,538.17
2023-06-12T13:15:22.490Z,466.35
2023-06-12T13:17:52.424Z,454.88
2023-06-12T13:20:20.672Z,477.90
2023-06-12T13:22:48.591Z,560.00
2023-06-12T13:25:18.890Z,438.63
2023-06-12T13:27:47.238Z,478.33
2023-06-12T13:30:16.882Z,476.98
2023-06-12T13:32:44.913Z,415.75
2023-06-12T13:35:12.962Z,381.73
2023-06-12T13:37:41.965Z,454.15
2023-06-12T13:40:14.500Z,483.40
2023-06-12T13:42:44.745Z,428.35
2023-06-12T13:45:14.640Z,475.33
2023-06-12T13:47:47.340Z,515.83
2023-06-12T13:50:16.203Z,513.63
2023-06-12T13:52:44.565Z,511.35
2023-06-12T13:55:12.690Z,481.90
2023-06-12T13:57:44.387Z,468.40
2023-06-12T14:00:14.103Z,463.40
2023-06-12T14:02:43.898Z,504.23
2023-06-12T14:05:12.943Z,533.25
2023-06-12T14:07:41.776Z,490.63
2023-06-12T14:10:11.544Z,457.27
2023-06-12T14:12:40.229Z,493.38
2023-06-12T14:15:09.825Z,547.95
2023-06-12T14:17:38.181Z,500.45
2023-06-12T14:20:09.032Z,465.88
2023-06-12T14:22:37.075Z,521.38
2023-06-12T14:25:05.673Z,562.70
2023-06-12T14:27:33.836Z,445.27
2023-06-12T14:30:01.855Z,346.67
2023-06-12T14:32:30.225Z,441.00
2023-06-12T14:34:58.354Z,517.00
2023-06-12T14:37:27.809Z,542.72
2023-06-12T14:39:56.186Z,513.88
2023-06-12T14:42:27.158Z,543.28
2023-06-12T14:44:56.121Z,563.30
2023-06-12T14:47:24.128Z,539.83
2023-06-12T14:49:52.210Z,452.05
2023-06-12T14:54:54.463Z,444.52
2023-06-12T14:57:22.908Z,415.50
2023-06-12T14:59:50.969Z,501.98
2023-06-12T15:02:19.065Z,390.90
2023-06-12T15:04:47.409Z,481.30
2023-06-12T15:07:15.597Z,505.45
2023-06-12T15:09:44.876Z,420.60
2023-06-12T15:12:14.513Z,414.38
2023-06-12T15:14:42.547Z,443.20
2023-06-12T15:17:10.939Z,438.90
2023-06-12T15:19:39.237Z,424.58
2023-06-12T15:22:07.987Z,515.75
2023-06-12T15:24:36.266Z,446.52
2023-06-12T15:27:04.778Z,391.77
2023-06-12T15:29:34.527Z,487.33
2023-06-12T15:32:05.958Z,467.33
2023-06-12T15:34:34.475Z,514.95
2023-06-12T15:37:02.666Z,480.83
2023-06-12T15:39:30.875Z,554.33
2023-06-12T15:42:01.024Z,393.63
2023-06-12T15:44:31.197Z,402.73
2023-06-12T15:47:01.010Z,424.23
2023-06-12T15:49:29.357Z,527.47
2023-06-12T15:51:57.598Z,489.90
2023-06-12T15:54:25.802Z,449.13
2023-06-12T15:56:54.182Z,480.15
2023-06-12T15:59:22.618Z,508.83
2023-06-12T16:01:53.539Z,400.10
2023-06-12T16:04:22.973Z,393.70
2023-06-12T16:06:51.378Z,388.02
2023-06-12T16:09:20.146Z,421.67
2023-06-12T16:11:49.043Z,379.15
2023-06-12T16:14:17.692Z,377.80
2023-06-12T16:16:47.042Z,354.20
2023-06-12T16:19:15.289Z,351.00
2023-06-12T16:21:44.732Z,402.40
2023-06-12T16:24:12.775Z,440.52
2023-06-12T16:26:42.955Z,394.33
2023-06-12T16:29:11.009Z,318.02
2023-06-12T16:31:39.239Z,343.58
2023-06-12T16:34:07.590Z,318.08
2023-06-12T16:36:36.372Z,303.42
2023-06-12T16:39:06.069Z,284.77
2023-06-12T16:41:34.241Z,331.85
2023-06-12T16:44:02.515Z,369.13
2023-06-12T16:46:30.680Z,416.55
2023-06-12T16:48:58.942Z,396.83
2023-06-12T16:51:27.049Z,480.58
2023-06-12T16:53:56.080Z,496.77
2023-06-12T16:56:25.456Z,327.92
2023-06-12T16:58:53.584Z,401.48
2023-06-12T17:01:21.801Z,302.08
2023-06-12T17:03:50.206Z,410.58
2023-06-12T17:06:18.343Z,432.05
2023-06-12T17:08:46.721Z,510.50
2023-06-12T17:11:17.172Z,471.27
2023-06-12T17:13:46.628Z,568.33
2023-06-12T17:16:15.002Z,518.67
2023-06-12T17:18:43.394Z,528.83
2023-06-12T17:21:11.799Z,358.33
2023-06-12T17:23:40.004Z,387.00
2023-06-12T17:26:08.111Z,447.67
2023-06-12T17:28:36.370Z,522.03
2023-06-12T17:31:05.988Z,498.45
2023-06-12T17:33:34.700Z,498.33
2023-06-12T17:36:04.733Z,479.40
2023-06-12T17:38:32.971Z,466.98
2023-06-12T17:41:01.051Z,458.08
2023-06-12T17:43:29.824Z,516.55
2023-06-12T17:45:58.326Z,439.95
2023-06-12T17:48:27.943Z,454.08
2023-06-12T17:50:56.172Z,349.88
2023-06-12T17:53:24.201Z,331.60
2023-06-12T17:55:52.870Z,354.85
2023-06-12T17:58:21.009Z,349.40
2023-06-12T18:00:49.408Z,362.40
2023-06-12T18:03:19.059Z,446.55
2023-06-12T18:05:51.831Z,367.98
2023-06-12T18:08:20.997Z,342.13
2023-06-12T18:10:49.471Z,378.45
2023-06-12T18:13:20.573Z,383.98
2023-06-12T18:15:51.397Z,343.42
2023-06-12T18:18:20.114Z,325.75
2023-06-12T18:20:50.156Z,352.52
2023-06-12T18:23:18.329Z,327.98
2023-06-12T18:25:46.681Z,318.92
2023-06-12T18:28:15.545Z,316.58
2023-06-12T18:30:44.465Z,312.30
2023-06-12T18:33:12.939Z,340.73
2023-06-12T18:35:41.620Z,350.15
2023-06-12T18:38:11.309Z,421.50
2023-06-12T18:40:45.249Z,432.05
2023-06-12T18:43:18.178Z,399.75
2023-06-12T18:45:48.403Z,323.98
2023-06-12T18:48:16.720Z,354.55
2023-06-12T18:50:44.907Z,421.60
2023-06-12T18:53:15.374Z,417.63
2023-06-12T18:55:43.943Z,412.60
2023-06-12T18:58:12.076Z,388.10
2023-06-12T19:00:40.787Z,421.83
2023-06-12T19:03:09.190Z,382.67
2023-06-12T19:05:37.508Z,350.58
2023-06-12T19:08:05.466Z,322.33
2023-06-12T19:10:36.214Z,347.10
2023-06-12T19:13:04.518Z,309.20
2023-06-12T19:15:32.777Z,313.30
2023-06-12T19:18:02.105Z,298.83
2023-06-12T19:20:30.251Z,309.95
2023-06-12T19:22:58.507Z,316.63
2023-06-12T19:25:26.819Z,283.98
2023-06-12T19:27:59.795Z,303.83
2023-06-12T19:30:28.165Z,308.95
2023-06-12T19:32:58.194Z,295.10
2023-06-12T19:35:26.260Z,301.05
2023-06-12T19:37:54.203Z,315.98
2023-06-12T19:40:22.328Z,283.83
2023-06-12T19:42:50.476Z,214.60
2023-06-12T19:45:24.116Z,206.82
2023-06-12T19:47:52.697Z,229.98
2023-06-12T19:50:22.153Z,278.67
2023-06-12T19:52:50.799Z,297.90
2023-06-12T19:55:18.948Z,314.10
2023-06-12T19:57:47.364Z,318.33
2023-06-12T20:00:17.036Z,314.90
2023-06-12T20:02:49.158Z,312.58
2023-06-12T20:05:18.869Z,311.23
2023-06-12T20:07:48.607Z,305.27
2023-06-12T20:10:17.217Z,311.30
2023-06-12T20:12:45.687Z,319.77
2023-06-12T20:15:13.922Z,322.30
2023-06-12T20:17:42.310Z,338.80
2023-06-12T20:20:12.577Z,318.90
2023-06-12T20:22:40.938Z,351.20
2023-06-12T20:25:11.559Z,412.95
2023-06-12T20:27:41.125Z,400.80
2023-06-12T20:30:10.622Z,408.45
2023-06-12T20:32:38.888Z,399.90
2023-06-12T20:35:07.859Z,407.27
2023-06-12T20:37:38.559Z,369.52
2023-06-12T20:40:07.594Z,326.08
2023-06-12T20:42:35.740Z,212.13
2023-06-12T20:45:03.905Z,274.77
2023-06-12T20:47:31.914Z,317.77
2023-06-12T20:50:00.192Z,364.15
2023-06-12T20:52:28.611Z,389.17
2023-06-12T20:54:58.244Z,435.73
2023-06-12T20:57:26.317Z,428.80
2023-06-12T20:59:54.307Z,439.00
2023-06-12T21:02:22.498Z,406.42
2023-06-12T21:04:50.987Z,365.20
2023-06-12T21:07:20.027Z,320.02
2023-06-12T21:09:49.052Z,357.40
2023-06-12T21:12:18.373Z,405.52
2023-06-12T21:14:46.681Z,375.27
2023-06-12T21:17:15.093Z,376.95
2023-06-12T21:19:44.956Z,373.95
2023-06-12T21:22:13.275Z,401.38
2023-06-12T21:24:41.633Z,409.08
2023-06-12T21:27:09.591Z,360.73
2023-06-12T21:29:39.259Z,360.02
2023-06-12T21:32:08.790Z,410.00
2023-06-12T21:34:36.883Z,307.58
2023-06-12T21:37:21.486Z,341.60
2023-06-12T21:39:51.478Z,398.88
2023-06-12T21:42:20.394Z,357.83
2023-06-12T21:44:50.189Z,356.17
2023-06-12T21:47:18.323Z,300.20
2023-06-12T21:49:46.329Z,296.55
2023-06-12T21:52:14.976Z,274.15
2023-06-12T21:54:42.979Z,276.65
2023-06-12T21:57:12.720Z,262.90
2023-06-12T21:59:40.833Z,211.68
2023-06-12T22:02:10.248Z,212.93
2023-06-12T22:04:38.466Z,222.98
2023-06-12T22:07:07.009Z,281.13
2023-06-12T22:09:35.289Z,295.15
2023-06-12T22:12:03.348Z,354.40
2023-06-12T22:14:31.414Z,336.75
2023-06-12T22:16:59.665Z,353.33
2023-06-12T22:19:29.191Z,344.75
2023-06-12T22:21:57.414Z,362.33
2023-06-12T22:24:25.570Z,365.67
2023-06-12T22:26:53.888Z,358.98
2023-06-12T22:29:21.865Z,356.27
2023-06-12T22:31:50.375Z,337.85
2023-06-12T22:34:18.527Z,332.73
2023-06-12T22:36:48.122Z,338.60
2023-06-12T22:39:16.791Z,343.65
2023-06-12T22:41:45.103Z,348.30
2023-06-12T22:44:13.314Z,296.10
2023-06-12T22:46:42.005Z,283.15
2023-06-12T22:49:12.026Z,269.70
2023-06-12T22:51:40.048Z,286.17
2023-06-12T22:54:09.973Z,206.10
2023-06-12T22:56:38.223Z,161.25
2023-06-12T22:59:06.574Z,254.25
2023-06-12T23:01:34.939Z,369.77
2023-06-12T23:04:02.943Z,346.08
2023-06-12T23:06:32.913Z,333.98
2023-06-12T23:09:01.327Z,297.63
2023-06-12T23:11:30.989Z,343.30
2023-06-12T23:13:59.184Z,353.80
2023-06-12T23:16:29.241Z,279.45
2023-06-12T23:18:57.649Z,253.60
2023-06-12T23:21:25.829Z,282.80
2023-06-12T23:23:56.028Z,290.10
2023-06-12T23:26:29.875Z,320.65
2023-06-12T23:28:59.356Z,323.00
2023-06-12T23:31:28.047Z,337.48
2023-06-12T23:33:56.561Z,309.42
2023-06-12T23:36:24.941Z,279.23
2023-06-12T23:38:52.979Z,255.38
2023-06-12T23:41:20.993Z,310.08
2023-06-12T23:43:49.150Z,347.48
2023-06-12T23:46:19.234Z,331.02
2023-06-12T23:48:47.527Z,339.90
2023-06-12T23:51:16.807Z,352.30
2023-06-12T23:53:44.841Z,331.95
2023-06-12T23:56:14.538Z,350.08
2023-06-12T23:58:42.749Z,350.42
